Time;durP1;ratioP1;P1;durP2;ratioP2;P2;SDS_P1;SDS_P2;PMS_P1;PMS_P2;Temp;Humidity;BMP_temperature;BMP_pressure;BME280_temperature;BME280_humidity;BME280_pressure;Samples;Min_cycle;Max_cycle;Signal;HPM_P1;HPM_P2
2021/08/03 00:01:41;0.00;0.00;0.62;0.00;0.00;0.62;1.80;1.03;;;27.60;31.00;;;;;;2265445;61;20384;-58
2021/08/03 00:04:11;0.00;0.00;0.62;0.00;0.00;0.62;1.40;0.80;;;27.60;31.00;;;;;;2265904;61;20350;-54
2021/08/03 00:06:47;0.00;0.00;0.62;0.00;0.00;0.62;1.50;1.00;;;27.60;31.00;;;;;;2264952;61;20370;-56
2021/08/03 00:09:15;0.00;0.00;0.62;0.00;0.00;0.62;1.47;1.00;;;27.60;31.10;;;;;;2265878;61;20353;-53
2021/08/03 00:11:45;0.00;0.00;0.62;0.00;0.00;0.62;1.83;0.90;;;27.60;31.10;;;;;;2265791;61;20354;-56
2021/08/03 00:14:12;0.00;0.00;0.62;0.00;0.00;0.62;1.70;1.07;;;27.60;31.10;;;;;;2264357;61;20589;-56
2021/08/03 00:16:41;0.00;0.00;0.62;0.00;0.00;0.62;2.10;1.10;;;27.60;31.20;;;;;;2265429;61;20389;-55
2021/08/03 00:19:08;0.00;0.00;0.62;0.00;0.00;0.62;2.50;1.23;;;27.60;31.20;;;;;;2265885;61;20448;-53
2021/08/03 00:21:36;0.00;0.00;0.62;0.00;0.00;0.62;2.17;1.27;;;27.60;31.20;;;;;;2264555;61;20362;-54
2021/08/03 00:24:04;0.00;0.00;0.62;0.00;0.00;0.62;1.30;0.90;;;27.60;31.20;;;;;;2265711;61;20425;-59
2021/08/03 00:26:31;0.00;0.00;0.62;0.00;0.00;0.62;2.17;1.00;;;27.60;31.30;;;;;;2265787;61;20460;-56
2021/08/03 00:28:59;0.00;0.00;0.62;0.00;0.00;0.62;2.07;1.40;;;27.60;31.30;;;;;;2264732;61;20350;-57
2021/08/03 00:31:27;0.00;0.00;0.62;0.00;0.00;0.62;2.40;1.00;;;27.60;31.30;;;;;;2265200;61;20691;-55
2021/08/03 00:33:56;0.00;0.00;0.62;0.00;0.00;0.62;2.47;1.00;;;27.60;31.40;;;;;;2265375;61;20377;-52
2021/08/03 00:37:06;0.00;0.00;0.62;0.00;0.00;0.62;2.20;0.90;;;27.50;31.30;;;;;;2264704;61;20392;-57
2021/08/03 00:39:34;0.00;0.00;0.62;0.00;0.00;0.62;1.30;0.80;;;27.60;31.40;;;;;;2265762;61;20439;-56
2021/08/03 00:42:03;0.00;0.00;0.62;0.00;0.00;0.62;1.60;1.10;;;27.60;31.50;;;;;;2265650;61;20357;-55
2021/08/03 00:44:44;0.00;0.00;0.62;0.00;0.00;0.62;1.20;0.80;;;27.50;31.40;;;;;;2264235;61;20358;-56
2021/08/03 00:47:17;0.00;0.00;0.62;0.00;0.00;0.62;1.93;1.00;;;27.60;31.50;;;;;;2265325;61;20649;-56
2021/08/03 00:49:48;0.00;0.00;0.62;0.00;0.00;0.62;1.50;0.90;;;27.60;31.60;;;;;;2265251;61;20400;-52
2021/08/03 00:52:16;0.00;0.00;0.62;0.00;0.00;0.62;1.80;1.10;;;27.50;31.50;;;;;;2264626;61;20768;-55
2021/08/03 00:54:45;0.00;0.00;0.62;0.00;0.00;0.62;2.13;1.03;;;27.50;31.60;;;;;;2265676;61;20357;-53
2021/08/03 00:57:15;0.00;0.00;0.62;0.00;0.00;0.62;1.70;0.87;;;27.50;31.50;;;;;;2265144;61;20373;-57
2021/08/03 00:59:45;0.00;0.00;0.62;0.00;0.00;0.62;1.83;0.80;;;27.50;31.70;;;;;;2264747;61;20361;-54
2021/08/03 01:02:13;0.00;0.00;0.62;0.00;0.00;0.62;1.30;0.80;;;27.50;31.70;;;;;;2265216;61;20338;-55
2021/08/03 01:04:41;0.00;0.00;0.62;0.00;0.00;0.62;1.60;1.00;;;27.50;31.70;;;;;;2265465;61;20358;-54
2021/08/03 01:07:20;0.00;0.00;0.62;0.00;0.00;0.62;1.60;0.80;;;27.50;31.80;;;;;;2264682;61;20392;-53
2021/08/03 01:10:01;0.00;0.00;0.62;0.00;0.00;0.62;1.30;0.80;;;27.50;31.70;;;;;;2265299;61;20642;-55
2021/08/03 01:12:45;0.00;0.00;0.62;0.00;0.00;0.62;1.40;1.00;;;27.50;31.80;;;;;;2265218;61;20374;-55
2021/08/03 01:15:17;0.00;0.00;0.62;0.00;0.00;0.62;2.97;1.10;;;27.50;31.70;;;;;;2264801;61;20358;-50
2021/08/03 01:17:51;0.00;0.00;0.62;0.00;0.00;0.62;3.10;1.10;;;27.50;31.70;;;;;;2265179;61;20617;-53
2021/08/03 01:20:25;0.00;0.00;0.62;0.00;0.00;0.62;1.70;1.00;;;27.50;31.70;;;;;;2265080;61;20614;-53
2021/08/03 01:23:46;0.00;0.00;0.62;0.00;0.00;0.62;1.40;0.90;;;27.50;31.70;;;;;;2264928;61;20358;-55
2021/08/03 01:26:41;0.00;0.00;0.62;0.00;0.00;0.62;1.77;1.00;;;27.50;31.70;;;;;;2265404;61;20403;-55
2021/08/03 01:29:10;0.00;0.00;0.62;0.00;0.00;0.62;2.30;0.90;;;27.50;31.70;;;;;;2265451;61;20580;-56
2021/08/03 01:31:46;0.00;0.00;0.62;0.00;0.00;0.62;1.30;0.90;;;27.50;31.70;;;;;;2265815;61;20580;-56
2021/08/03 01:34:15;0.00;0.00;0.62;0.00;0.00;0.62;1.53;0.90;;;27.40;31.70;;;;;;2265810;61;20491;-52
2021/08/03 01:36:51;0.00;0.00;0.62;0.00;0.00;0.62;1.30;0.73;;;27.50;31.80;;;;;;2264876;61;20745;-58
2021/08/03 01:39:24;0.00;0.00;0.62;0.00;0.00;0.62;2.03;0.90;;;27.40;31.70;;;;;;2266346;61;20350;-56
2021/08/03 01:41:55;0.00;0.00;0.62;0.00;0.00;0.62;1.50;1.03;;;27.50;31.80;;;;;;2265595;61;20353;-58
2021/08/03 01:44:25;0.00;0.00;0.62;0.00;0.00;0.62;1.40;1.20;;;27.50;31.70;;;;;;2264950;61;20655;-58
2021/08/03 01:46:51;0.00;0.00;0.62;0.00;0.00;0.62;3.00;1.37;;;27.40;31.70;;;;;;2265619;61;20377;-56
2021/08/03 01:49:22;0.00;0.00;0.62;0.00;0.00;0.62;1.47;0.87;;;27.50;32.40;;;;;;2265918;61;20596;-56
2021/08/03 01:51:51;0.00;0.00;0.62;0.00;0.00;0.62;3.57;1.33;;;27.40;31.70;;;;;;2265491;61;20357;-56
2021/08/03 01:54:22;0.00;0.00;0.62;0.00;0.00;0.62;1.80;1.23;;;27.40;31.70;;;;;;2265807;61;20480;-56
2021/08/03 01:56:50;0.00;0.00;0.62;0.00;0.00;0.62;1.30;0.90;;;27.40;31.70;;;;;;2265554;61;20374;-56
2021/08/03 01:59:19;0.00;0.00;0.62;0.00;0.00;0.62;1.40;0.80;;;27.40;31.70;;;;;;2265210;61;20407;-58
2021/08/03 02:01:51;0.00;0.00;0.62;0.00;0.00;0.62;1.63;0.90;;;27.40;31.70;;;;;;2265549;61;20349;-56
2021/08/03 02:04:19;0.00;0.00;0.62;0.00;0.00;0.62;1.90;1.00;;;27.40;31.70;;;;;;2265600;61;20581;-55
2021/08/03 02:06:48;0.00;0.00;0.62;0.00;0.00;0.62;2.50;1.00;;;27.40;31.70;;;;;;2265201;61;20378;-50
2021/08/03 02:09:17;0.00;0.00;0.62;0.00;0.00;0.62;2.70;1.23;;;27.40;31.70;;;;;;2266392;61;20354;-57
2021/08/03 02:11:49;0.00;0.00;0.62;0.00;0.00;0.62;1.50;1.00;;;27.40;31.70;;;;;;2265285;61;20648;-55
2021/08/03 02:14:17;0.00;0.00;0.62;0.00;0.00;0.62;1.70;1.07;;;27.40;31.70;;;;;;2265183;61;20358;-56
2021/08/03 02:16:55;0.00;0.00;0.62;0.00;0.00;0.62;1.70;1.20;;;27.40;31.70;;;;;;2265644;61;20405;-55
2021/08/03 02:19:29;0.00;0.00;0.62;0.00;0.00;0.62;1.30;0.90;;;27.40;31.70;;;;;;2265415;61;20379;-57
2021/08/03 02:22:07;0.00;0.00;0.62;0.00;0.00;0.62;1.50;1.03;;;27.40;31.70;;;;;;2265805;61;20601;-55
2021/08/03 02:24:39;0.00;0.00;0.62;0.00;0.00;0.62;1.60;0.90;;;27.40;31.70;;;;;;2265734;61;20679;-52
2021/08/03 02:27:09;0.00;0.00;0.62;0.00;0.00;0.62;1.73;1.00;;;27.40;31.70;;;;;;2265324;61;20369;-56
2021/08/03 02:29:42;0.00;0.00;0.62;0.00;0.00;0.62;1.50;1.00;;;27.40;31.80;;;;;;2265481;61;20758;-55
2021/08/03 02:32:16;0.00;0.00;0.62;0.00;0.00;0.62;1.90;0.97;;;27.40;31.80;;;;;;2265579;61;20374;-55
2021/08/03 02:34:51;0.00;0.00;0.62;0.00;0.00;0.62;1.93;1.00;;;27.40;31.80;;;;;;2264766;61;20364;-58
2021/08/03 02:37:24;0.00;0.00;0.62;0.00;0.00;0.62;1.20;0.77;;;27.40;31.80;;;;;;2265966;61;20612;-52
2021/08/03 02:39:54;0.00;0.00;0.62;0.00;0.00;0.62;1.60;0.90;;;27.30;31.70;;;;;;2265660;61;20694;-55
2021/08/03 02:42:22;0.00;0.00;0.62;0.00;0.00;0.62;1.50;0.93;;;27.40;31.80;;;;;;2264684;61;20571;-56
2021/08/03 02:44:54;0.00;0.00;0.62;0.00;0.00;0.62;1.87;1.00;;;27.40;31.90;;;;;;2266026;61;20357;-54
2021/08/03 02:47:29;0.00;0.00;0.62;0.00;0.00;0.62;1.80;1.03;;;27.40;31.90;;;;;;2266020;61;20903;-52
2021/08/03 02:50:06;0.00;0.00;0.62;0.00;0.00;0.62;1.60;0.90;;;27.40;32.00;;;;;;2264988;61;20361;-57
2021/08/03 02:52:37;0.00;0.00;0.62;0.00;0.00;0.62;5.93;1.03;;;27.40;32.00;;;;;;2266138;61;20377;-54
2021/08/03 02:55:10;0.00;0.00;0.62;0.00;0.00;0.62;1.40;0.90;;;27.30;32.00;;;;;;2265146;61;20691;-59
2021/08/03 02:57:40;0.00;0.00;0.62;0.00;0.00;0.62;2.00;1.00;;;27.30;32.00;;;;;;2263990;61;20507;-58
2021/08/03 03:00:08;0.00;0.00;0.62;0.00;0.00;0.62;1.67;0.90;;;27.30;32.00;;;;;;2264847;61;20586;-56
2021/08/03 03:02:40;0.00;0.00;0.62;0.00;0.00;0.62;1.30;0.77;;;27.30;32.00;;;;;;2264964;61;20400;-56
2021/08/03 03:05:12;0.00;0.00;0.62;0.00;0.00;0.62;1.37;0.87;;;27.30;32.00;;;;;;2264455;61;20366;-54
2021/08/03 03:07:43;0.00;0.00;0.62;0.00;0.00;0.62;1.60;0.90;;;27.30;32.10;;;;;;2265345;61;20440;-57
2021/08/03 03:10:16;0.00;0.00;0.62;0.00;0.00;0.62;1.30;0.90;;;27.30;32.00;;;;;;2265331;61;20354;-55
2021/08/03 03:12:49;0.00;0.00;0.62;0.00;0.00;0.62;1.77;0.90;;;27.30;32.10;;;;;;2265301;61;20389;-59
2021/08/03 03:15:18;0.00;0.00;0.62;0.00;0.00;0.62;2.00;1.17;;;27.30;32.10;;;;;;2265653;61;20354;-59
2021/08/03 03:17:47;0.00;0.00;0.62;0.00;0.00;0.62;1.73;1.00;;;27.40;32.20;;;;;;2265025;61;20381;-60
2021/08/03 03:20:17;0.00;0.00;0.62;0.00;0.00;0.62;2.63;1.00;;;27.40;32.20;;;;;;2263864;61;20479;-59
2021/08/03 03:22:46;0.00;0.00;0.62;0.00;0.00;0.62;1.97;0.90;;;27.40;32.10;;;;;;2265952;61;20358;-59
2021/08/03 03:25:21;0.00;0.00;0.62;0.00;0.00;0.62;1.80;1.03;;;27.40;32.10;;;;;;2265649;61;20740;-59
2021/08/03 03:27:54;0.00;0.00;0.62;0.00;0.00;0.62;2.43;1.20;;;27.40;32.10;;;;;;2264797;61;20598;-52
2021/08/03 03:30:21;0.00;0.00;0.62;0.00;0.00;0.62;1.93;1.10;;;27.30;32.10;;;;;;2265601;61;20354;-55
2021/08/03 03:32:50;0.00;0.00;0.62;0.00;0.00;0.62;1.20;0.80;;;27.30;32.10;;;;;;2266076;61;20742;-59
2021/08/03 03:35:21;0.00;0.00;0.62;0.00;0.00;0.62;2.33;1.30;;;27.30;32.10;;;;;;2265318;61;20362;-57
2021/08/03 03:37:51;0.00;0.00;0.62;0.00;0.00;0.62;1.90;1.03;;;27.30;32.10;;;;;;2265707;61;20374;-57
2021/08/03 03:40:21;0.00;0.00;0.62;0.00;0.00;0.62;1.40;0.90;;;27.30;32.10;;;;;;2262215;61;20362;-55
2021/08/03 03:42:51;0.00;0.00;0.62;0.00;0.00;0.62;3.40;1.00;;;27.30;32.10;;;;;;2264724;61;20439;-54
2021/08/03 03:45:18;0.00;0.00;0.62;0.00;0.00;0.62;1.50;1.00;;;27.30;32.80;;;;;;2266038;61;20357;-56
2021/08/03 03:47:56;0.00;0.00;0.62;0.00;0.00;0.62;1.97;1.10;;;27.20;32.10;;;;;;2265199;61;20374;-56
2021/08/03 03:50:31;0.00;0.00;0.62;0.00;0.00;0.62;2.03;1.10;;;27.20;32.10;;;;;;2265064;61;20397;-53
2021/08/03 03:53:06;0.00;0.00;0.62;0.00;0.00;0.62;1.50;1.00;;;27.20;32.10;;;;;;2266087;61;20377;-54
2021/08/03 03:55:34;0.00;0.00;0.62;0.00;0.00;0.62;1.40;0.93;;;27.20;32.10;;;;;;2264976;61;20356;-59
2021/08/03 03:58:02;0.00;0.00;0.62;0.00;0.00;0.62;1.53;1.00;;;27.20;32.10;;;;;;2265187;61;20435;-56
2021/08/03 04:00:33;0.00;0.00;0.62;0.00;0.00;0.62;1.57;1.00;;;27.20;32.10;;;;;;2265370;61;20429;-59
2021/08/03 04:03:03;0.00;0.00;0.62;0.00;0.00;0.62;1.40;0.80;;;27.20;32.20;;;;;;2265379;61;20740;-54
2021/08/03 04:05:31;0.00;0.00;0.62;0.00;0.00;0.62;1.53;1.00;;;27.20;32.20;;;;;;2265669;61;20604;-54
2021/08/03 04:08:00;0.00;0.00;0.62;0.00;0.00;0.62;1.50;0.90;;;27.20;32.20;;;;;;2265846;61;20357;-57
2021/08/03 04:10:32;0.00;0.00;0.62;0.00;0.00;0.62;1.30;0.90;;;27.20;32.30;;;;;;2264885;61;20309;-58
2021/08/03 04:12:59;0.00;0.00;0.62;0.00;0.00;0.62;1.40;0.80;;;27.20;32.30;;;;;;2265670;61;20382;-57
2021/08/03 04:15:27;0.00;0.00;0.62;0.00;0.00;0.62;1.27;0.83;;;27.20;32.30;;;;;;2265911;61;20622;-53
2021/08/03 04:17:54;0.00;0.00;0.62;0.00;0.00;0.62;1.90;0.80;;;27.10;32.20;;;;;;2265028;61;20385;-59
2021/08/03 04:20:22;0.00;0.00;0.62;0.00;0.00;0.62;2.17;0.90;;;27.20;32.30;;;;;;2265515;61;20690;-54
2021/08/03 04:22:49;0.00;0.00;0.62;0.00;0.00;0.62;1.70;1.30;;;27.10;32.20;;;;;;2265601;61;20412;-54
2021/08/03 04:25:15;0.00;0.00;0.62;0.00;0.00;0.62;1.47;1.00;;;27.10;32.20;;;;;;2265452;61;20722;-52
2021/08/03 04:27:42;0.00;0.00;0.62;0.00;0.00;0.62;1.60;0.90;;;27.20;32.30;;;;;;2265430;61;20449;-57
2021/08/03 04:30:12;0.00;0.00;0.62;0.00;0.00;0.62;1.70;1.20;;;27.10;32.30;;;;;;2265732;61;20701;-56
2021/08/03 04:32:40;0.00;0.00;0.62;0.00;0.00;0.62;1.90;0.97;;;27.10;32.30;;;;;;2265509;61;20365;-58
2021/08/03 04:35:08;0.00;0.00;0.62;0.00;0.00;0.62;1.77;1.00;;;27.10;32.30;;;;;;2265487;61;20384;-51
2021/08/03 04:37:41;0.00;0.00;0.62;0.00;0.00;0.62;1.53;1.00;;;27.10;32.30;;;;;;2265850;61;20365;-55
2021/08/03 04:40:11;0.00;0.00;0.62;0.00;0.00;0.62;1.47;0.93;;;27.10;32.40;;;;;;2265369;61;20437;-56
2021/08/03 04:42:37;0.00;0.00;0.62;0.00;0.00;0.62;2.47;1.40;;;27.10;32.40;;;;;;2265508;61;20354;-56
2021/08/03 04:45:06;0.00;0.00;0.62;0.00;0.00;0.62;2.13;1.30;;;27.10;32.40;;;;;;2265789;61;20354;-56
2021/08/03 04:47:38;0.00;0.00;0.62;0.00;0.00;0.62;2.20;0.83;;;27.10;32.40;;;;;;2265308;61;20380;-56
2021/08/03 04:50:08;0.00;0.00;0.62;0.00;0.00;0.62;1.60;1.03;;;27.10;32.50;;;;;;2265471;61;20404;-57
2021/08/03 04:52:34;0.00;0.00;0.62;0.00;0.00;0.62;1.90;1.17;;;27.10;32.50;;;;;;2265856;61;20385;-58
2021/08/03 04:55:03;0.00;0.00;0.62;0.00;0.00;0.62;4.17;1.00;;;27.10;32.50;;;;;;2265607;61;20437;-55
2021/08/03 04:57:30;0.00;0.00;0.62;0.00;0.00;0.62;1.70;0.80;;;27.10;32.50;;;;;;2265424;61;20389;-58
2021/08/03 04:59:56;0.00;0.00;0.62;0.00;0.00;0.62;1.40;0.90;;;27.10;32.50;;;;;;2265118;61;20624;-57
2021/08/03 05:02:23;0.00;0.00;0.62;0.00;0.00;0.62;2.67;1.50;;;27.10;32.50;;;;;;2264872;61;20351;-59
2021/08/03 05:04:50;0.00;0.00;0.62;0.00;0.00;0.62;1.70;1.00;;;27.10;32.60;;;;;;2264906;61;20707;-57
2021/08/03 05:07:16;0.00;0.00;0.62;0.00;0.00;0.62;1.60;1.00;;;27.10;32.50;;;;;;2265279;61;20381;-57
2021/08/03 05:09:43;0.00;0.00;0.62;0.00;0.00;0.62;1.70;1.10;;;27.10;32.60;;;;;;2265011;61;20358;-57
2021/08/03 05:12:11;0.00;0.00;0.62;0.00;0.00;0.62;1.63;0.80;;;27.10;32.60;;;;;;2264723;61;20362;-56
2021/08/03 05:14:37;0.00;0.00;0.62;0.00;0.00;0.62;1.50;1.27;;;27.10;32.60;;;;;;2265228;61;20366;-55
2021/08/03 05:17:04;0.00;0.00;0.62;0.00;0.00;0.62;2.13;1.40;;;27.00;32.50;;;;;;2264532;61;20381;-57
2021/08/03 05:19:31;0.00;0.00;0.62;0.00;0.00;0.62;1.70;1.10;;;27.10;32.60;;;;;;2264800;61;20357;-53
2021/08/03 05:21:58;0.00;0.00;0.62;0.00;0.00;0.62;1.50;0.93;;;27.10;32.70;;;;;;2265055;61;20507;-56
2021/08/03 05:24:28;0.00;0.00;0.62;0.00;0.00;0.62;1.70;1.10;;;27.00;33.40;;;;;;2264896;61;20365;-57
2021/08/03 05:26:55;0.00;0.00;0.62;0.00;0.00;0.62;5.60;1.50;;;27.10;32.80;;;;;;2264848;61;20723;-56
2021/08/03 05:29:23;0.00;0.00;0.62;0.00;0.00;0.62;1.57;1.10;;;27.00;32.70;;;;;;2265170;61;20690;-59
2021/08/03 05:31:49;0.00;0.00;0.62;0.00;0.00;0.62;2.03;1.20;;;27.10;32.70;;;;;;2264879;61;20361;-51
2021/08/03 05:34:16;0.00;0.00;0.62;0.00;0.00;0.62;1.77;1.17;;;27.10;32.70;;;;;;2264755;61;20393;-59
2021/08/03 05:36:42;0.00;0.00;0.62;0.00;0.00;0.62;2.07;1.20;;;27.00;32.70;;;;;;2265216;61;20445;-58
2021/08/03 05:39:11;0.00;0.00;0.62;0.00;0.00;0.62;2.50;1.20;;;27.00;32.70;;;;;;2265004;61;20475;-55
2021/08/03 05:41:38;0.00;0.00;0.62;0.00;0.00;0.62;1.60;1.07;;;27.00;32.80;;;;;;2264647;61;20555;-56
2021/08/03 05:44:04;0.00;0.00;0.62;0.00;0.00;0.62;1.40;1.07;;;27.00;32.70;;;;;;2264912;61;20361;-55
2021/08/03 05:46:32;0.00;0.00;0.62;0.00;0.00;0.62;2.63;1.40;;;27.00;32.80;;;;;;2264611;61;20627;-56
2021/08/03 05:48:59;0.00;0.00;0.62;0.00;0.00;0.62;3.00;1.40;;;27.00;32.80;;;;;;2264534;61;20776;-52
2021/08/03 05:51:25;0.00;0.00;0.62;0.00;0.00;0.62;2.30;1.50;;;27.00;32.80;;;;;;2265627;61;20358;-58
2021/08/03 05:53:52;0.00;0.00;0.62;0.00;0.00;0.62;1.60;1.20;;;27.00;32.80;;;;;;2265437;61;20393;-51
2021/08/03 05:56:19;0.00;0.00;0.62;0.00;0.00;0.62;1.73;1.07;;;27.00;32.80;;;;;;2264986;61;20373;-57
2021/08/03 05:58:46;0.00;0.00;0.62;0.00;0.00;0.62;1.43;1.00;;;27.00;32.80;;;;;;2265727;61;20600;-55
2021/08/03 06:01:12;0.00;0.00;0.62;0.00;0.00;0.62;1.50;1.03;;;27.00;32.80;;;;;;2265276;61;20550;-53
2021/08/03 06:03:40;0.00;0.00;0.62;0.00;0.00;0.62;2.47;1.20;;;27.00;32.80;;;;;;2264462;61;20350;-51
2021/08/03 06:06:07;0.00;0.00;0.62;0.00;0.00;0.62;1.90;1.07;;;27.00;32.80;;;;;;2265675;61;20362;-52
2021/08/03 06:08:35;0.00;0.00;0.62;0.00;0.00;0.62;1.90;1.00;;;27.10;32.90;;;;;;2265401;61;20687;-53
2021/08/03 06:11:02;0.00;0.00;0.62;0.00;0.00;0.62;2.50;1.30;;;27.10;32.90;;;;;;2264899;61;20389;-57
2021/08/03 06:13:30;0.00;0.00;0.62;0.00;0.00;0.62;2.07;1.03;;;27.10;32.90;;;;;;2266357;61;20400;-52
2021/08/03 06:16:00;0.00;0.00;0.62;0.00;0.00;0.62;4.20;1.00;;;27.10;32.90;;;;;;2266078;61;20683;-55
2021/08/03 06:18:29;0.00;0.00;0.62;0.00;0.00;0.62;1.60;1.20;;;27.10;32.90;;;;;;2265720;61;20396;-58
2021/08/03 06:20:58;0.00;0.00;0.62;0.00;0.00;0.62;1.63;1.07;;;27.10;32.90;;;;;;2266205;61;20346;-56
2021/08/03 06:23:26;0.00;0.00;0.62;0.00;0.00;0.62;2.43;1.20;;;27.10;32.90;;;;;;2265774;61;20358;-59
2021/08/03 06:25:57;0.00;0.00;0.62;0.00;0.00;0.62;1.90;1.37;;;27.10;33.60;;;;;;2265555;61;20354;-58
2021/08/03 06:28:26;0.00;0.00;0.62;0.00;0.00;0.62;1.67;1.03;;;27.10;33.00;;;;;;2266311;61;20358;-52
2021/08/03 06:30:53;0.00;0.00;0.62;0.00;0.00;0.62;3.70;1.40;;;27.10;32.90;;;;;;2265403;61;20584;-56
2021/08/03 06:33:22;0.00;0.00;0.62;0.00;0.00;0.62;1.50;1.03;;;27.10;32.90;;;;;;2265119;61;20382;-57
2021/08/03 06:35:51;0.00;0.00;0.62;0.00;0.00;0.62;2.43;1.37;;;27.10;32.90;;;;;;2266205;61;20736;-51
2021/08/03 06:38:19;0.00;0.00;0.62;0.00;0.00;0.62;1.93;1.40;;;27.10;32.80;;;;;;2265873;61;20687;-57
2021/08/03 06:40:53;0.00;0.00;0.62;0.00;0.00;0.62;2.40;1.00;;;27.10;32.90;;;;;;2265496;61;20350;-55
2021/08/03 06:43:25;0.00;0.00;0.62;0.00;0.00;0.62;1.60;1.30;;;27.10;32.80;;;;;;2266330;61;20354;-57
2021/08/03 06:46:03;0.00;0.00;0.62;0.00;0.00;0.62;1.67;1.40;;;27.10;32.90;;;;;;2265961;61;20365;-59
2021/08/03 06:48:33;0.00;0.00;0.62;0.00;0.00;0.62;3.43;1.63;;;27.10;32.80;;;;;;2265602;61;20350;-52
2021/08/03 06:51:05;0.00;0.00;0.62;0.00;0.00;0.62;2.27;1.80;;;27.10;32.60;;;;;;2266112;61;20445;-59
2021/08/03 06:53:35;0.00;0.00;0.62;0.00;0.00;0.62;3.77;1.83;;;27.10;32.60;;;;;;2265602;61;20602;-52
2021/08/03 06:56:04;0.00;0.00;0.62;0.00;0.00;0.62;3.57;1.30;;;27.00;32.50;;;;;;2265956;61;20394;-58
2021/08/03 06:58:38;0.00;0.00;0.62;0.00;0.00;0.62;2.80;1.37;;;27.00;32.60;;;;;;2266171;61;20355;-58
2021/08/03 07:01:07;0.00;0.00;0.62;0.00;0.00;0.62;4.00;1.60;;;27.00;32.70;;;;;;2265455;61;20357;-60
2021/08/03 07:03:44;0.00;0.00;0.62;0.00;0.00;0.62;2.33;1.37;;;27.00;32.60;;;;;;2265916;61;20685;-59
2021/08/03 07:06:14;0.00;0.00;0.62;0.00;0.00;0.62;2.07;1.07;;;27.00;32.60;;;;;;2266151;61;20373;-58
2021/08/03 07:08:42;0.00;0.00;0.62;0.00;0.00;0.62;1.97;1.30;;;27.00;32.60;;;;;;2264772;61;20429;-59
2021/08/03 07:11:10;0.00;0.00;0.62;0.00;0.00;0.62;1.93;1.30;;;27.00;32.70;;;;;;2266165;61;20709;-56
2021/08/03 07:13:38;0.00;0.00;0.62;0.00;0.00;0.62;1.83;1.00;;;27.00;32.80;;;;;;2266050;61;20384;-59
2021/08/03 07:16:05;0.00;0.00;0.62;0.00;0.00;0.62;1.40;0.87;;;26.90;32.70;;;;;;2265294;61;20376;-55
2021/08/03 07:18:33;0.00;0.00;0.62;0.00;0.00;0.62;3.77;1.47;;;26.90;32.70;;;;;;2266173;61;20369;-60
2021/08/03 07:21:01;0.00;0.00;0.62;0.00;0.00;0.62;1.50;1.10;;;26.90;32.60;;;;;;2265951;61;20585;-55
2021/08/03 07:23:29;0.00;0.00;0.62;0.00;0.00;0.62;2.83;1.30;;;26.90;32.60;;;;;;2265069;61;20555;-54
2021/08/03 07:25:57;0.00;0.00;0.62;0.00;0.00;0.62;2.60;1.20;;;26.90;32.60;;;;;;2266159;61;20395;-55
2021/08/03 07:28:23;0.00;0.00;0.62;0.00;0.00;0.62;3.20;1.40;;;26.90;32.70;;;;;;2266005;61;20354;-57
2021/08/03 07:30:50;0.00;0.00;0.62;0.00;0.00;0.62;2.43;1.30;;;26.90;32.80;;;;;;2265312;61;20354;-57
2021/08/03 07:33:19;0.00;0.00;0.62;0.00;0.00;0.62;1.50;1.03;;;26.90;32.70;;;;;;2266138;61;20592;-60
2021/08/03 07:35:46;0.00;0.00;0.62;0.00;0.00;0.62;2.20;1.00;;;26.90;32.70;;;;;;2266120;61;20365;-59
2021/08/03 07:38:13;0.00;0.00;0.62;0.00;0.00;0.62;1.40;1.10;;;26.90;32.70;;;;;;2265566;61;20678;-59
2021/08/03 07:40:41;0.00;0.00;0.62;0.00;0.00;0.62;1.87;1.10;;;26.90;32.70;;;;;;2265844;61;20360;-57
2021/08/03 07:43:09;0.00;0.00;0.62;0.00;0.00;0.62;1.90;1.00;;;26.90;32.70;;;;;;2266000;61;20342;-54
2021/08/03 07:45:37;0.00;0.00;0.62;0.00;0.00;0.62;1.80;1.00;;;26.90;32.60;;;;;;2265433;61;20358;-58
2021/08/03 07:48:05;0.00;0.00;0.62;0.00;0.00;0.62;1.57;1.10;;;26.90;32.60;;;;;;2265905;61;20668;-58
2021/08/03 07:50:31;0.00;0.00;0.62;0.00;0.00;0.62;1.80;1.20;;;26.90;32.50;;;;;;2265905;61;20572;-57
2021/08/03 07:52:59;0.00;0.00;0.62;0.00;0.00;0.62;3.93;1.00;;;26.90;32.40;;;;;;2265307;61;20374;-57
2021/08/03 07:55:25;0.00;0.00;0.62;0.00;0.00;0.62;2.10;1.40;;;26.90;32.30;;;;;;2265923;61;20594;-58
2021/08/03 07:57:52;0.00;0.00;0.62;0.00;0.00;0.62;1.73;1.00;;;26.90;32.20;;;;;;2266036;61;20400;-58
2021/08/03 08:00:20;0.00;0.00;0.62;0.00;0.00;0.62;1.57;1.17;;;26.90;32.20;;;;;;2265253;61;20787;-56
2021/08/03 08:02:46;0.00;0.00;0.62;0.00;0.00;0.62;1.67;1.00;;;26.90;32.20;;;;;;2265611;61;20433;-53
2021/08/03 08:05:13;0.00;0.00;0.62;0.00;0.00;0.62;1.93;1.00;;;26.90;32.20;;;;;;2266079;61;20433;-56
2021/08/03 08:07:40;0.00;0.00;0.62;0.00;0.00;0.62;2.37;1.10;;;26.90;32.10;;;;;;2265360;61;20370;-57
2021/08/03 08:10:08;0.00;0.00;0.62;0.00;0.00;0.62;2.57;1.10;;;26.90;32.10;;;;;;2265541;61;20361;-57
2021/08/03 08:12:35;0.00;0.00;0.62;0.00;0.00;0.62;1.40;1.10;;;26.90;32.00;;;;;;2265936;61;20380;-57
2021/08/03 08:15:02;0.00;0.00;0.62;0.00;0.00;0.62;4.43;1.27;;;26.90;31.80;;;;;;2265423;61;20365;-57
2021/08/03 08:17:29;0.00;0.00;0.62;0.00;0.00;0.62;2.67;1.37;;;26.90;31.70;;;;;;2265553;61;20597;-58
2021/08/03 08:19:56;0.00;0.00;0.62;0.00;0.00;0.62;3.83;1.00;;;26.80;31.60;;;;;;2265836;61;20358;-56
2021/08/03 08:22:23;0.00;0.00;0.62;0.00;0.00;0.62;1.50;1.23;;;26.80;31.70;;;;;;2265262;61;20366;-55
2021/08/03 08:24:49;0.00;0.00;0.62;0.00;0.00;0.62;1.80;1.00;;;26.80;31.70;;;;;;2265398;61;20350;-58
2021/08/03 08:27:16;0.00;0.00;0.62;0.00;0.00;0.62;2.80;1.17;;;26.80;31.70;;;;;;2265908;61;20420;-54
2021/08/03 08:29:43;0.00;0.00;0.62;0.00;0.00;0.62;1.50;1.10;;;26.80;31.70;;;;;;2265485;61;20358;-58
2021/08/03 08:32:10;0.00;0.00;0.62;0.00;0.00;0.62;2.13;1.37;;;26.80;31.60;;;;;;2265408;61;20354;-57
2021/08/03 08:34:38;0.00;0.00;0.62;0.00;0.00;0.62;2.07;1.30;;;26.80;31.50;;;;;;2265730;61;20393;-56
2021/08/03 08:37:05;0.00;0.00;0.62;0.00;0.00;0.62;1.53;1.10;;;26.80;31.20;;;;;;2265482;61;20378;-56
2021/08/03 08:39:32;0.00;0.00;0.62;0.00;0.00;0.62;2.60;1.30;;;26.70;31.20;;;;;;2265492;61;20358;-56
2021/08/03 08:41:58;0.00;0.00;0.62;0.00;0.00;0.62;2.37;1.10;;;26.70;31.20;;;;;;2265800;61;20354;-58
2021/08/03 08:44:25;0.00;0.00;0.62;0.00;0.00;0.62;4.03;1.40;;;26.70;31.40;;;;;;2265519;61;20358;-58
2021/08/03 08:46:54;0.00;0.00;0.62;0.00;0.00;0.62;1.70;0.93;;;26.70;31.50;;;;;;2265416;61;20585;-56
2021/08/03 08:49:21;0.00;0.00;0.62;0.00;0.00;0.62;1.50;1.23;;;26.70;31.50;;;;;;2265839;61;20683;-57
2021/08/03 08:51:50;0.00;0.00;0.62;0.00;0.00;0.62;2.07;1.30;;;26.70;31.50;;;;;;2265641;61;20388;-57
2021/08/03 08:54:16;0.00;0.00;0.62;0.00;0.00;0.62;1.60;1.20;;;26.70;31.50;;;;;;2265436;61;20772;-57
2021/08/03 08:56:42;0.00;0.00;0.62;0.00;0.00;0.62;3.03;1.60;;;26.70;31.60;;;;;;2265867;61;20582;-57
2021/08/03 08:59:09;0.00;0.00;0.62;0.00;0.00;0.62;1.93;1.20;;;26.70;31.70;;;;;;2265589;61;20358;-55
2021/08/03 09:01:36;0.00;0.00;0.62;0.00;0.00;0.62;1.53;1.07;;;26.70;31.90;;;;;;2265076;61;20433;-54
2021/08/03 09:04:06;0.00;0.00;0.62;0.00;0.00;0.62;2.00;1.00;;;26.70;32.10;;;;;;2265694;61;20361;-53
2021/08/03 09:06:32;0.00;0.00;0.62;0.00;0.00;0.62;2.83;1.33;;;26.70;32.20;;;;;;2265593;61;20710;-53
2021/08/03 09:09:13;0.00;0.00;0.62;0.00;0.00;0.62;1.80;1.20;;;26.70;32.20;;;;;;2264648;61;20357;-54
2021/08/03 09:11:45;0.00;0.00;0.62;0.00;0.00;0.62;2.97;1.30;;;26.70;32.30;;;;;;2265710;61;20354;-53
2021/08/03 09:14:12;0.00;0.00;0.62;0.00;0.00;0.62;1.80;0.93;;;26.70;32.30;;;;;;2265131;61;20737;-55
2021/08/03 09:16:47;0.00;0.00;0.62;0.00;0.00;0.62;2.27;1.40;;;26.70;32.30;;;;;;2265515;61;20362;-55
2021/08/03 09:19:34;0.00;0.00;0.62;0.00;0.00;0.62;1.60;1.00;;;26.80;32.40;;;;;;2265829;61;20436;-55
2021/08/03 09:22:19;0.00;0.00;0.62;0.00;0.00;0.62;2.67;1.00;;;26.80;32.40;;;;;;2264528;61;20366;-57
2021/08/03 09:24:50;0.00;0.00;0.62;0.00;0.00;0.62;1.73;1.23;;;26.80;32.40;;;;;;2265650;61;20411;-57
2021/08/03 09:27:32;0.00;0.00;0.62;0.00;0.00;0.62;1.53;1.20;;;26.80;32.40;;;;;;2265811;61;20773;-56
2021/08/03 09:29:59;0.00;0.00;0.62;0.00;0.00;0.62;3.83;0.93;;;26.80;32.40;;;;;;2264724;61;20350;-53
2021/08/03 09:32:31;0.00;0.00;0.62;0.00;0.00;0.62;1.40;1.00;;;26.90;32.50;;;;;;2265757;61;20381;-56
2021/08/03 09:35:10;0.00;0.00;0.62;0.00;0.00;0.62;3.50;1.23;;;26.90;32.50;;;;;;2265732;61;20580;-57
2021/08/03 09:37:37;0.00;0.00;0.62;0.00;0.00;0.62;2.50;1.37;;;26.90;32.50;;;;;;2264427;61;20657;-56
2021/08/03 09:40:17;0.00;0.00;0.62;0.00;0.00;0.62;3.87;1.27;;;26.90;32.40;;;;;;2265721;61;20549;-54
2021/08/03 09:42:44;0.00;0.00;0.62;0.00;0.00;0.62;1.43;1.00;;;27.00;32.50;;;;;;2265137;61;20828;-57
2021/08/03 09:45:11;0.00;0.00;0.62;0.00;0.00;0.62;2.90;1.17;;;27.00;32.50;;;;;;2264903;61;20354;-59
2021/08/03 09:47:38;0.00;0.00;0.62;0.00;0.00;0.62;2.10;1.07;;;27.00;32.50;;;;;;2266286;61;20369;-54
2021/08/03 09:50:08;0.00;0.00;0.62;0.00;0.00;0.62;1.50;1.00;;;27.00;32.50;;;;;;2266193;61;20697;-58
2021/08/03 09:52:40;0.00;0.00;0.62;0.00;0.00;0.62;1.57;0.90;;;27.10;32.70;;;;;;2265001;61;20346;-59